sensor_id;sensor_type;location;lat;lon;timestamp;pressure;altitude;pressure_sealevel;temperature;humidity
53246;BME280;39569;51.090;-1.786;2023-07-31T00:00:45;100262.19;;;26.84;51.23
53246;BME280;39569;51.090;-1.786;2023-07-31T00:03:12;100252.47;;;26.15;52.43
53246;BME280;39569;51.090;-1.786;2023-07-31T00:05:39;100250.94;;;26.57;51.90
53246;BME280;39569;51.090;-1.786;2023-07-31T00:08:06;100250.44;;;26.55;51.58
53246;BME280;39569;51.090;-1.786;2023-07-31T00:10:34;100249.09;;;26.52;52.26
53246;BME280;39569;51.090;-1.786;2023-07-31T00:13:00;100247.09;;;26.58;51.89
53246;BME280;39569;51.090;-1.786;2023-07-31T00:15:27;100252.28;;;26.59;51.47
53246;BME280;39569;51.090;-1.786;2023-07-31T00:17:54;100251.03;;;26.23;52.36
53246;BME280;39569;51.090;-1.786;2023-07-31T00:20:21;100239.88;;;26.43;51.86
53246;BME280;39569;51.090;-1.786;2023-07-31T00:22:48;100247.19;;;26.24;52.77
53246;BME280;39569;51.090;-1.786;2023-07-31T00:25:14;100243.94;;;25.55;55.28
53246;BME280;39569;51.090;-1.786;2023-07-31T00:27:42;100242.09;;;26.41;52.36
53246;BME280;39569;51.090;-1.786;2023-07-31T00:30:11;100225.75;;;26.31;52.72
53246;BME280;39569;51.090;-1.786;2023-07-31T00:32:38;100231.28;;;26.50;52.22
53246;BME280;39569;51.090;-1.786;2023-07-31T00:35:05;100224.50;;;25.85;54.06
53246;BME280;39569;51.090;-1.786;2023-07-31T00:37:32;100221.78;;;26.18;52.78
53246;BME280;39569;51.090;-1.786;2023-07-31T00:39:59;100211.75;;;26.33;52.56
53246;BME280;39569;51.090;-1.786;2023-07-31T00:42:26;100211.38;;;25.87;53.57
53246;BME280;39569;51.090;-1.786;2023-07-31T00:44:54;100211.72;;;26.38;52.94
53246;BME280;39569;51.090;-1.786;2023-07-31T00:47:21;100202.16;;;26.82;51.38
53246;BME280;39569;51.090;-1.786;2023-07-31T00:49:48;100209.91;;;25.66;54.67
53246;BME280;39569;51.090;-1.786;2023-07-31T00:52:15;100210.53;;;26.44;53.17
53246;BME280;39569;51.090;-1.786;2023-07-31T00:54:42;100204.44;;;25.94;54.22
53246;BME280;39569;51.090;-1.786;2023-07-31T00:57:09;100203.72;;;26.65;52.46
53246;BME280;39569;51.090;-1.786;2023-07-31T00:59:36;100198.41;;;26.26;52.87
53246;BME280;39569;51.090;-1.786;2023-07-31T01:02:05;100193.91;;;26.11;54.18
53246;BME280;39569;51.090;-1.786;2023-07-31T01:04:32;100195.72;;;25.92;54.01
53246;BME280;39569;51.090;-1.786;2023-07-31T01:07:05;100187.22;;;26.22;53.57
53246;BME280;39569;51.090;-1.786;2023-07-31T01:09:41;100172.84;;;26.36;52.83
53246;BME280;39569;51.090;-1.786;2023-07-31T01:12:14;100171.25;;;26.30;53.72
53246;BME280;39569;51.090;-1.786;2023-07-31T01:14:50;100178.16;;;26.93;51.78
53246;BME280;39569;51.090;-1.786;2023-07-31T01:17:19;100163.84;;;26.77;52.20
53246;BME280;39569;51.090;-1.786;2023-07-31T01:19:46;100158.53;;;26.86;52.24
53246;BME280;39569;51.090;-1.786;2023-07-31T01:22:28;100154.34;;;26.46;53.43
53246;BME280;39569;51.090;-1.786;2023-07-31T01:25:05;100151.16;;;27.56;50.58
53246;BME280;39569;51.090;-1.786;2023-07-31T01:27:43;100148.66;;;26.43;53.42
53246;BME280;39569;51.090;-1.786;2023-07-31T01:30:16;100140.34;;;26.48;53.09
53246;BME280;39569;51.090;-1.786;2023-07-31T01:32:47;100146.09;;;27.12;51.08
53246;BME280;39569;51.090;-1.786;2023-07-31T01:35:15;100142.31;;;26.47;53.00
53246;BME280;39569;51.090;-1.786;2023-07-31T01:37:41;100139.50;;;27.32;50.63
53246;BME280;39569;51.090;-1.786;2023-07-31T01:40:08;100153.53;;;26.22;54.10
53246;BME280;39569;51.090;-1.786;2023-07-31T01:42:35;100131.56;;;27.11;51.53
53246;BME280;39569;51.090;-1.786;2023-07-31T01:45:04;100128.91;;;26.64;53.12
53246;BME280;39569;51.090;-1.786;2023-07-31T01:47:31;100136.13;;;26.79;52.68
53246;BME280;39569;51.090;-1.786;2023-07-31T01:49:58;100134.31;;;26.51;52.85
53246;BME280;39569;51.090;-1.786;2023-07-31T01:52:25;100123.25;;;26.79;51.95
53246;BME280;39569;51.090;-1.786;2023-07-31T01:54:52;100116.47;;;26.95;51.60
53246;BME280;39569;51.090;-1.786;2023-07-31T01:57:18;100114.88;;;27.59;50.60
53246;BME280;39569;51.090;-1.786;2023-07-31T01:59:45;100116.47;;;26.95;52.32
53246;BME280;39569;51.090;-1.786;2023-07-31T02:02:13;100124.69;;;26.95;51.82
53246;BME280;39569;51.090;-1.786;2023-07-31T02:04:40;100118.03;;;27.52;51.09
53246;BME280;39569;51.090;-1.786;2023-07-31T02:07:07;100117.66;;;27.40;51.02
53246;BME280;39569;51.090;-1.786;2023-07-31T02:09:33;100102.09;;;27.68;50.05
53246;BME280;39569;51.090;-1.786;2023-07-31T02:12:00;100104.03;;;27.16;52.12
53246;BME280;39569;51.090;-1.786;2023-07-31T02:14:27;100101.97;;;27.59;50.28
53246;BME280;39569;51.090;-1.786;2023-07-31T02:16:54;100098.47;;;27.40;51.35
53246;BME280;39569;51.090;-1.786;2023-07-31T02:19:22;100091.56;;;27.43;50.63
53246;BME280;39569;51.090;-1.786;2023-07-31T02:21:48;100088.25;;;27.59;50.57
53246;BME280;39569;51.090;-1.786;2023-07-31T02:24:15;100085.88;;;27.39;51.30
53246;BME280;39569;51.090;-1.786;2023-07-31T02:26:42;100084.91;;;27.30;50.96
53246;BME280;39569;51.090;-1.786;2023-07-31T02:29:09;100084.78;;;27.03;51.97
53246;BME280;39569;51.090;-1.786;2023-07-31T02:31:36;100071.88;;;27.22;51.64
53246;BME280;39569;51.090;-1.786;2023-07-31T02:34:02;100076.09;;;27.92;49.77
53246;BME280;39569;51.090;-1.786;2023-07-31T02:36:30;100075.78;;;27.16;51.82
53246;BME280;39569;51.090;-1.786;2023-07-31T02:38:57;100072.53;;;26.82;52.01
53246;BME280;39569;51.090;-1.786;2023-07-31T02:41:24;100067.41;;;27.26;51.45
53246;BME280;39569;51.090;-1.786;2023-07-31T02:43:51;100070.25;;;27.21;51.42
53246;BME280;39569;51.090;-1.786;2023-07-31T02:46:17;100065.00;;;27.06;51.50
53246;BME280;39569;51.090;-1.786;2023-07-31T02:48:44;100058.47;;;27.20;52.01
53246;BME280;39569;51.090;-1.786;2023-07-31T02:51:11;100056.13;;;26.58;52.85
53246;BME280;39569;51.090;-1.786;2023-07-31T02:53:39;100038.75;;;27.64;50.58
53246;BME280;39569;51.090;-1.786;2023-07-31T02:56:06;100039.06;;;27.90;50.01
53246;BME280;39569;51.090;-1.786;2023-07-31T02:58:32;100034.59;;;27.67;50.55
53246;BME280;39569;51.090;-1.786;2023-07-31T03:00:59;100041.28;;;27.47;51.09
53246;BME280;39569;51.090;-1.786;2023-07-31T03:03:26;100031.97;;;27.62;50.63
53246;BME280;39569;51.090;-1.786;2023-07-31T03:05:53;100030.97;;;27.71;50.62
53246;BME280;39569;51.090;-1.786;2023-07-31T03:08:20;100029.00;;;27.58;51.13
53246;BME280;39569;51.090;-1.786;2023-07-31T03:10:48;100034.50;;;27.85;50.03
53246;BME280;39569;51.090;-1.786;2023-07-31T03:13:14;100036.88;;;27.00;52.18
53246;BME280;39569;51.090;-1.786;2023-07-31T03:15:42;100035.09;;;27.42;51.16
53246;BME280;39569;51.090;-1.786;2023-07-31T03:18:08;100041.41;;;27.56;51.02
53246;BME280;39569;51.090;-1.786;2023-07-31T03:20:35;100031.31;;;26.68;53.05
53246;BME280;39569;51.090;-1.786;2023-07-31T03:23:02;100026.84;;;27.55;51.03
53246;BME280;39569;51.090;-1.786;2023-07-31T03:25:29;100027.06;;;27.45;50.78
53246;BME280;39569;51.090;-1.786;2023-07-31T03:27:57;100031.34;;;27.65;50.64
53246;BME280;39569;51.090;-1.786;2023-07-31T03:30:23;100033.41;;;27.08;52.23
53246;BME280;39569;51.090;-1.786;2023-07-31T03:32:50;100022.94;;;28.02;49.53
53246;BME280;39569;51.090;-1.786;2023-07-31T03:35:17;100025.84;;;26.87;52.63
53246;BME280;39569;51.090;-1.786;2023-07-31T03:37:44;100016.94;;;27.73;50.44
53246;BME280;39569;51.090;-1.786;2023-07-31T03:40:11;100014.16;;;27.13;51.84
53246;BME280;39569;51.090;-1.786;2023-07-31T03:42:38;100010.09;;;27.57;51.22
53246;BME280;39569;51.090;-1.786;2023-07-31T03:45:07;100005.72;;;27.56;51.01
53246;BME280;39569;51.090;-1.786;2023-07-31T03:47:34;100018.22;;;26.84;52.04
53246;BME280;39569;51.090;-1.786;2023-07-31T03:50:01;100012.63;;;27.40;51.19
53246;BME280;39569;51.090;-1.786;2023-07-31T03:52:28;100005.72;;;27.10;52.22
53246;BME280;39569;51.090;-1.786;2023-07-31T03:54:55;100003.59;;;27.53;51.13
53246;BME280;39569;51.090;-1.786;2023-07-31T03:57:22;100006.72;;;26.82;52.57
53246;BME280;39569;51.090;-1.786;2023-07-31T03:59:48;100012.69;;;27.35;51.20
53246;BME280;39569;51.090;-1.786;2023-07-31T04:02:16;100012.34;;;27.82;50.67
53246;BME280;39569;51.090;-1.786;2023-07-31T04:04:44;100006.31;;;28.34;49.08
53246;BME280;39569;51.090;-1.786;2023-07-31T04:07:10;100003.84;;;28.60;48.42
53246;BME280;39569;51.090;-1.786;2023-07-31T04:09:37;100005.41;;;27.57;50.50
53246;BME280;39569;51.090;-1.786;2023-07-31T04:12:04;100004.63;;;27.70;50.59
53246;BME280;39569;51.090;-1.786;2023-07-31T04:14:31;100002.03;;;27.33;51.05
53246;BME280;39569;51.090;-1.786;2023-07-31T04:16:58;100002.34;;;27.32;51.06
53246;BME280;39569;51.090;-1.786;2023-07-31T04:19:26;100001.88;;;27.84;50.39
53246;BME280;39569;51.090;-1.786;2023-07-31T04:21:53;100003.09;;;27.91;49.97
53246;BME280;39569;51.090;-1.786;2023-07-31T04:24:19;99998.94;;;27.94;49.95
53246;BME280;39569;51.090;-1.786;2023-07-31T04:26:49;100002.50;;;27.94;50.01
53246;BME280;39569;51.090;-1.786;2023-07-31T04:29:16;100010.50;;;27.50;50.58
53246;BME280;39569;51.090;-1.786;2023-07-31T04:31:43;100009.81;;;28.12;49.67
53246;BME280;39569;51.090;-1.786;2023-07-31T04:34:10;100017.09;;;27.36;51.42
53246;BME280;39569;51.090;-1.786;2023-07-31T04:36:38;100003.19;;;28.13;49.68
53246;BME280;39569;51.090;-1.786;2023-07-31T04:39:05;100003.22;;;28.00;49.53
53246;BME280;39569;51.090;-1.786;2023-07-31T04:41:32;100005.31;;;28.30;49.06
53246;BME280;39569;51.090;-1.786;2023-07-31T04:43:58;100004.50;;;27.48;51.01
53246;BME280;39569;51.090;-1.786;2023-07-31T04:46:25;100000.47;;;27.27;51.14
53246;BME280;39569;51.090;-1.786;2023-07-31T04:48:52;100004.56;;;26.79;52.30
53246;BME280;39569;51.090;-1.786;2023-07-31T04:51:18;99993.63;;;27.97;49.88
53246;BME280;39569;51.090;-1.786;2023-07-31T04:53:47;99994.75;;;27.69;49.92
53246;BME280;39569;51.090;-1.786;2023-07-31T04:56:15;99990.81;;;28.38;48.64
53246;BME280;39569;51.090;-1.786;2023-07-31T04:58:42;99994.25;;;28.57;48.31
53246;BME280;39569;51.090;-1.786;2023-07-31T05:01:08;100005.25;;;28.44;48.88
53246;BME280;39569;51.090;-1.786;2023-07-31T05:03:35;99999.22;;;28.91;47.75
53246;BME280;39569;51.090;-1.786;2023-07-31T05:06:02;100004.53;;;28.02;49.43
53246;BME280;39569;51.090;-1.786;2023-07-31T05:08:28;100009.13;;;27.93;49.27
53246;BME280;39569;51.090;-1.786;2023-07-31T05:10:57;99993.47;;;28.43;48.61
53246;BME280;39569;51.090;-1.786;2023-07-31T05:13:23;99991.50;;;28.44;48.59
53246;BME280;39569;51.090;-1.786;2023-07-31T05:15:50;99983.06;;;28.54;48.48
53246;BME280;39569;51.090;-1.786;2023-07-31T05:18:17;99981.69;;;28.29;49.08
53246;BME280;39569;51.090;-1.786;2023-07-31T05:20:43;99989.34;;;28.19;49.44
53246;BME280;39569;51.090;-1.786;2023-07-31T05:23:10;99985.56;;;28.28;49.08
53246;BME280;39569;51.090;-1.786;2023-07-31T05:25:37;99986.66;;;28.41;49.10
53246;BME280;39569;51.090;-1.786;2023-07-31T05:28:05;99981.13;;;28.05;49.57
53246;BME280;39569;51.090;-1.786;2023-07-31T05:30:32;99972.81;;;27.96;50.05
53246;BME280;39569;51.090;-1.786;2023-07-31T05:32:59;99974.13;;;27.85;50.14
53246;BME280;39569;51.090;-1.786;2023-07-31T05:35:25;99976.41;;;28.90;47.84
53246;BME280;39569;51.090;-1.786;2023-07-31T05:37:52;99977.38;;;27.87;50.41
53246;BME280;39569;51.090;-1.786;2023-07-31T05:40:19;99985.81;;;27.91;49.84
53246;BME280;39569;51.090;-1.786;2023-07-31T05:42:46;99984.94;;;28.31;49.28
53246;BME280;39569;51.090;-1.786;2023-07-31T05:45:14;99980.00;;;28.55;48.74
53246;BME280;39569;51.090;-1.786;2023-07-31T05:47:41;99982.16;;;28.80;48.00
53246;BME280;39569;51.090;-1.786;2023-07-31T05:50:08;99983.22;;;28.93;47.97
53246;BME280;39569;51.090;-1.786;2023-07-31T05:52:35;99979.47;;;28.67;48.53
53246;BME280;39569;51.090;-1.786;2023-07-31T05:55:01;99979.91;;;27.57;50.96
53246;BME280;39569;51.090;-1.786;2023-07-31T05:57:29;99968.22;;;27.78;50.67
53246;BME280;39569;51.090;-1.786;2023-07-31T05:59:55;99966.09;;;28.02;49.50
53246;BME280;39569;51.090;-1.786;2023-07-31T06:02:23;99961.84;;;28.68;48.42
53246;BME280;39569;51.090;-1.786;2023-07-31T06:04:50;99961.53;;;28.69;48.35
53246;BME280;39569;51.090;-1.786;2023-07-31T06:07:17;99980.63;;;27.62;51.27
53246;BME280;39569;51.090;-1.786;2023-07-31T06:09:44;99991.50;;;27.67;51.06
53246;BME280;39569;51.090;-1.786;2023-07-31T06:12:11;99978.88;;;26.93;52.79
53246;BME280;39569;51.090;-1.786;2023-07-31T06:14:38;99966.22;;;28.33;49.58
53246;BME280;39569;51.090;-1.786;2023-07-31T06:17:05;99958.56;;;27.94;50.81
53246;BME280;39569;51.090;-1.786;2023-07-31T06:19:33;99960.53;;;28.65;48.56
53246;BME280;39569;51.090;-1.786;2023-07-31T06:22:00;99958.66;;;28.74;48.41
53246;BME280;39569;51.090;-1.786;2023-07-31T06:24:27;99952.66;;;27.74;50.81
53246;BME280;39569;51.090;-1.786;2023-07-31T06:26:55;99950.06;;;28.18;49.62
53246;BME280;39569;51.090;-1.786;2023-07-31T06:29:23;99959.31;;;28.71;48.39
53246;BME280;39569;51.090;-1.786;2023-07-31T06:31:49;99957.22;;;28.99;47.99
53246;BME280;39569;51.090;-1.786;2023-07-31T06:34:16;99962.63;;;27.83;50.53
53246;BME280;39569;51.090;-1.786;2023-07-31T06:36:45;99960.03;;;28.63;49.07
53246;BME280;39569;51.090;-1.786;2023-07-31T06:39:11;99953.88;;;28.44;48.71
53246;BME280;39569;51.090;-1.786;2023-07-31T06:41:38;99951.47;;;28.29;49.32
53246;BME280;39569;51.090;-1.786;2023-07-31T06:44:05;99953.28;;;29.14;47.49
53246;BME280;39569;51.090;-1.786;2023-07-31T06:46:32;99950.28;;;28.57;48.29
53246;BME280;39569;51.090;-1.786;2023-07-31T06:48:59;99928.41;;;28.74;48.53
53246;BME280;39569;51.090;-1.786;2023-07-31T06:51:25;99935.50;;;28.31;49.15
53246;BME280;39569;51.090;-1.786;2023-07-31T06:53:54;99938.38;;;29.15;47.76
53246;BME280;39569;51.090;-1.786;2023-07-31T06:56:21;99935.63;;;28.48;49.40
53246;BME280;39569;51.090;-1.786;2023-07-31T06:58:48;99935.88;;;29.27;48.14
53246;BME280;39569;51.090;-1.786;2023-07-31T07:01:14;99933.13;;;27.89;50.83
53246;BME280;39569;51.090;-1.786;2023-07-31T07:03:41;99930.47;;;28.47;48.93
53246;BME280;39569;51.090;-1.786;2023-07-31T07:06:08;99932.69;;;28.80;48.86
53246;BME280;39569;51.090;-1.786;2023-07-31T07:08:35;99922.72;;;28.93;48.39
53246;BME280;39569;51.090;-1.786;2023-07-31T07:11:03;99912.59;;;28.80;48.62
53246;BME280;39569;51.090;-1.786;2023-07-31T07:13:30;99910.41;;;28.90;47.82
53246;BME280;39569;51.090;-1.786;2023-07-31T07:15:56;99921.25;;;28.65;49.49
53246;BME280;39569;51.090;-1.786;2023-07-31T07:18:23;99922.94;;;29.05;48.49
53246;BME280;39569;51.090;-1.786;2023-07-31T07:20:51;99914.47;;;29.24;47.68
53246;BME280;39569;51.090;-1.786;2023-07-31T07:23:18;99901.94;;;29.40;47.51
53246;BME280;39569;51.090;-1.786;2023-07-31T07:25:46;99917.59;;;29.08;48.58
53246;BME280;39569;51.090;-1.786;2023-07-31T07:28:14;99909.09;;;28.66;48.54
53246;BME280;39569;51.090;-1.786;2023-07-31T07:30:41;99911.34;;;28.86;48.78
53246;BME280;39569;51.090;-1.786;2023-07-31T07:33:08;99911.22;;;28.47;48.80
53246;BME280;39569;51.090;-1.786;2023-07-31T07:35:35;99911.63;;;29.06;47.27
53246;BME280;39569;51.090;-1.786;2023-07-31T07:38:02;99900.28;;;29.39;46.85
53246;BME280;39569;51.090;-1.786;2023-07-31T07:40:28;99912.13;;;28.56;48.77
53246;BME280;39569;51.090;-1.786;2023-07-31T07:42:55;99904.84;;;29.43;47.30
53246;BME280;39569;51.090;-1.786;2023-07-31T07:45:23;99901.00;;;29.53;46.66
53246;BME280;39569;51.090;-1.786;2023-07-31T07:47:50;99900.81;;;30.06;45.62
53246;BME280;39569;51.090;-1.786;2023-07-31T07:50:17;99902.13;;;29.52;46.02
53246;BME280;39569;51.090;-1.786;2023-07-31T07:52:44;99904.78;;;29.26;47.31
53246;BME280;39569;51.090;-1.786;2023-07-31T07:55:11;99900.56;;;28.98;47.85
53246;BME280;39569;51.090;-1.786;2023-07-31T07:57:37;99898.66;;;29.07;47.49
53246;BME280;39569;51.090;-1.786;2023-07-31T08:00:05;99898.44;;;29.17;47.07
53246;BME280;39569;51.090;-1.786;2023-07-31T08:02:34;99894.19;;;29.59;44.89
53246;BME280;39569;51.090;-1.786;2023-07-31T08:05:00;99893.25;;;29.16;46.95
53246;BME280;39569;51.090;-1.786;2023-07-31T08:07:27;99877.47;;;29.38;46.02
53246;BME280;39569;51.090;-1.786;2023-07-31T08:09:54;99884.75;;;30.16;44.71
53246;BME280;39569;51.090;-1.786;2023-07-31T08:12:21;99874.16;;;30.95;42.69
53246;BME280;39569;51.090;-1.786;2023-07-31T08:14:48;99877.06;;;28.92;46.72
53246;BME280;39569;51.090;-1.786;2023-07-31T08:17:14;99873.19;;;30.82;43.74
53246;BME280;39569;51.090;-1.786;2023-07-31T08:19:42;99876.13;;;30.60;44.50
53246;BME280;39569;51.090;-1.786;2023-07-31T08:22:10;99883.97;;;30.41;43.78
53246;BME280;39569;51.090;-1.786;2023-07-31T08:24:37;99877.94;;;30.48;43.05
53246;BME280;39569;51.090;-1.786;2023-07-31T08:27:06;99883.81;;;30.29;42.85
53246;BME280;39569;51.090;-1.786;2023-07-31T08:29:32;99903.66;;;28.52;43.65
53246;BME280;39569;51.090;-1.786;2023-07-31T08:31:59;99908.59;;;28.86;44.42
53246;BME280;39569;51.090;-1.786;2023-07-31T08:34:26;99886.78;;;28.89;43.08
53246;BME280;39569;51.090;-1.786;2023-07-31T08:36:54;99883.63;;;29.04;43.15
53246;BME280;39569;51.090;-1.786;2023-07-31T08:39:21;99895.47;;;28.39;42.64
53246;BME280;39569;51.090;-1.786;2023-07-31T08:41:47;99883.72;;;27.89;43.67
53246;BME280;39569;51.090;-1.786;2023-07-31T08:44:15;99893.34;;;27.51;44.73
53246;BME280;39569;51.090;-1.786;2023-07-31T08:46:43;99875.03;;;28.09;42.94
53246;BME280;39569;51.090;-1.786;2023-07-31T08:49:12;99883.66;;;28.16;43.39
53246;BME280;39569;51.090;-1.786;2023-07-31T08:51:39;99899.56;;;28.63;41.94
53246;BME280;39569;51.090;-1.786;2023-07-31T08:54:08;99920.31;;;29.00;41.81
53246;BME280;39569;51.090;-1.786;2023-07-31T08:56:35;99927.22;;;28.45;42.92
53246;BME280;39569;51.090;-1.786;2023-07-31T08:59:03;99906.72;;;27.93;42.63
53246;BME280;39569;51.090;-1.786;2023-07-31T09:01:34;99917.47;;;27.76;42.64
53246;BME280;39569;51.090;-1.786;2023-07-31T09:04:03;99894.19;;;28.36;41.01
53246;BME280;39569;51.090;-1.786;2023-07-31T09:06:31;99876.38;;;27.84;41.46
53246;BME280;39569;51.090;-1.786;2023-07-31T09:08:58;99879.44;;;29.46;39.85
53246;BME280;39569;51.090;-1.786;2023-07-31T09:11:27;99907.00;;;29.16;40.22
53246;BME280;39569;51.090;-1.786;2023-07-31T09:13:57;99918.72;;;28.55;41.14
53246;BME280;39569;51.090;-1.786;2023-07-31T09:16:27;99885.47;;;28.87;41.38
53246;BME280;39569;51.090;-1.786;2023-07-31T09:18:57;99866.03;;;28.53;41.10
53246;BME280;39569;51.090;-1.786;2023-07-31T09:21:27;99866.03;;;27.68;42.27
53246;BME280;39569;51.090;-1.786;2023-07-31T09:23:54;99872.66;;;29.61;40.42
53246;BME280;39569;51.090;-1.786;2023-07-31T09:26:32;99871.41;;;28.00;42.64
53246;BME280;39569;51.090;-1.786;2023-07-31T09:28:59;99854.25;;;29.14;40.30
53246;BME280;39569;51.090;-1.786;2023-07-31T09:31:38;99855.03;;;28.53;41.26
53246;BME280;39569;51.090;-1.786;2023-07-31T09:34:04;99855.59;;;28.63;41.99
53246;BME280;39569;51.090;-1.786;2023-07-31T09:36:31;99860.22;;;29.63;40.07
53246;BME280;39569;51.090;-1.786;2023-07-31T09:39:02;99862.09;;;29.37;40.66
53246;BME280;39569;51.090;-1.786;2023-07-31T09:41:30;99870.09;;;29.64;40.46
53246;BME280;39569;51.090;-1.786;2023-07-31T09:43:57;99873.88;;;29.29;40.95
53246;BME280;39569;51.090;-1.786;2023-07-31T09:46:26;99867.63;;;28.76;41.77
53246;BME280;39569;51.090;-1.786;2023-07-31T09:49:03;99869.31;;;28.41;42.91
53246;BME280;39569;51.090;-1.786;2023-07-31T09:51:32;99890.66;;;28.88;42.08
53246;BME280;39569;51.090;-1.786;2023-07-31T09:54:10;99894.22;;;28.45;42.40
53246;BME280;39569;51.090;-1.786;2023-07-31T09:56:42;99881.34;;;29.37;41.33
53246;BME280;39569;51.090;-1.786;2023-07-31T09:59:11;99887.25;;;29.53;41.52
53246;BME280;39569;51.090;-1.786;2023-07-31T10:01:40;99893.19;;;29.46;41.34
53246;BME280;39569;51.090;-1.786;2023-07-31T10:04:07;99905.25;;;28.67;42.23
53246;BME280;39569;51.090;-1.786;2023-07-31T10:06:35;99905.19;;;29.50;41.09
53246;BME280;39569;51.090;-1.786;2023-07-31T10:09:03;99868.53;;;29.33;41.16
53246;BME280;39569;51.090;-1.786;2023-07-31T10:11:34;99872.25;;;29.76;41.28
53246;BME280;39569;51.090;-1.786;2023-07-31T10:14:04;99866.75;;;29.76;41.54
53246;BME280;39569;51.090;-1.786;2023-07-31T10:16:32;99867.22;;;29.78;41.21
53246;BME280;39569;51.090;-1.786;2023-07-31T10:18:59;99861.75;;;28.99;42.08
53246;BME280;39569;51.090;-1.786;2023-07-31T10:21:26;99872.41;;;29.23;42.73
53246;BME280;39569;51.090;-1.786;2023-07-31T10:23:53;99901.69;;;29.19;42.28
53246;BME280;39569;51.090;-1.786;2023-07-31T10:26:23;99917.38;;;29.58;41.54
53246;BME280;39569;51.090;-1.786;2023-07-31T10:28:52;99931.81;;;28.71;43.76
53246;BME280;39569;51.090;-1.786;2023-07-31T10:31:21;99926.56;;;28.48;43.90
53246;BME280;39569;51.090;-1.786;2023-07-31T10:33:48;99928.94;;;28.54;43.67
53246;BME280;39569;51.090;-1.786;2023-07-31T10:36:17;99922.72;;;28.13;44.77
53246;BME280;39569;51.090;-1.786;2023-07-31T10:38:45;99923.38;;;28.10;44.40
53246;BME280;39569;51.090;-1.786;2023-07-31T10:41:12;99926.09;;;28.10;44.07
53246;BME280;39569;51.090;-1.786;2023-07-31T10:43:38;99925.44;;;27.37;44.82
53246;BME280;39569;51.090;-1.786;2023-07-31T10:46:09;99944.13;;;27.75;44.80
53246;BME280;39569;51.090;-1.786;2023-07-31T10:48:40;99921.25;;;28.29;43.48
53246;BME280;39569;51.090;-1.786;2023-07-31T10:51:09;99904.50;;;28.17;43.42
53246;BME280;39569;51.090;-1.786;2023-07-31T10:53:38;99900.41;;;27.25;43.79
53246;BME280;39569;51.090;-1.786;2023-07-31T10:56:06;99898.13;;;27.45;44.28
53246;BME280;39569;51.090;-1.786;2023-07-31T10:58:34;99911.19;;;27.35;44.39
53246;BME280;39569;51.090;-1.786;2023-07-31T11:01:02;99913.81;;;28.30;42.82
53246;BME280;39569;51.090;-1.786;2023-07-31T11:03:44;99908.88;;;29.06;41.66
53246;BME280;39569;51.090;-1.786;2023-07-31T11:06:12;99918.44;;;28.56;42.03
53246;BME280;39569;51.090;-1.786;2023-07-31T11:08:43;99915.34;;;28.00;43.09
53246;BME280;39569;51.090;-1.786;2023-07-31T11:11:13;99920.56;;;28.24;42.13
53246;BME280;39569;51.090;-1.786;2023-07-31T11:13:42;99928.16;;;28.04;42.22
53246;BME280;39569;51.090;-1.786;2023-07-31T11:16:11;99928.91;;;27.69;42.82
53246;BME280;39569;51.090;-1.786;2023-07-31T11:18:39;99915.91;;;28.10;42.41
53246;BME280;39569;51.090;-1.786;2023-07-31T11:21:09;99907.44;;;28.56;41.92
53246;BME280;39569;51.090;-1.786;2023-07-31T11:23:38;99894.19;;;28.58;41.35
53246;BME280;39569;51.090;-1.786;2023-07-31T11:26:05;99893.69;;;27.98;41.79
53246;BME280;39569;51.090;-1.786;2023-07-31T11:28:32;99900.69;;;27.77;42.94
53246;BME280;39569;51.090;-1.786;2023-07-31T11:31:00;99895.97;;;27.56;42.93
53246;BME280;39569;51.090;-1.786;2023-07-31T11:33:27;99906.50;;;27.76;42.23
53246;BME280;39569;51.090;-1.786;2023-07-31T11:35:54;99891.28;;;28.19;41.85
53246;BME280;39569;51.090;-1.786;2023-07-31T11:38:23;99888.34;;;28.16;41.26
53246;BME280;39569;51.090;-1.786;2023-07-31T11:40:51;99891.22;;;27.34;42.89
53246;BME280;39569;51.090;-1.786;2023-07-31T11:43:18;99887.63;;;28.68;41.72
53246;BME280;39569;51.090;-1.786;2023-07-31T11:45:47;99882.09;;;27.88;42.36
53246;BME280;39569;51.090;-1.786;2023-07-31T11:48:21;99879.63;;;27.37;43.51
53246;BME280;39569;51.090;-1.786;2023-07-31T11:50:49;99876.91;;;27.05;43.58
53246;BME280;39569;51.090;-1.786;2023-07-31T11:53:19;99864.25;;;26.95;42.99
53246;BME280;39569;51.090;-1.786;2023-07-31T11:55:49;99864.00;;;26.78;44.67
53246;BME280;39569;51.090;-1.786;2023-07-31T11:58:17;99867.59;;;26.60;45.08
53246;BME280;39569;51.090;-1.786;2023-07-31T12:00:44;99865.28;;;27.54;43.09
53246;BME280;39569;51.090;-1.786;2023-07-31T12:03:12;99870.13;;;27.57;43.29
53246;BME280;39569;51.090;-1.786;2023-07-31T12:05:39;99858.75;;;27.77;44.08
53246;BME280;39569;51.090;-1.786;2023-07-31T12:08:09;99855.31;;;27.58;44.36
53246;BME280;39569;51.090;-1.786;2023-07-31T12:10:37;99845.81;;;28.35;42.63
53246;BME280;39569;51.090;-1.786;2023-07-31T12:13:09;99827.72;;;28.34;42.63
53246;BME280;39569;51.090;-1.786;2023-07-31T12:15:40;99827.09;;;28.59;41.69
53246;BME280;39569;51.090;-1.786;2023-07-31T12:18:09;99825.66;;;28.62;42.06
53246;BME280;39569;51.090;-1.786;2023-07-31T12:20:41;99828.09;;;28.19;43.58
53246;BME280;39569;51.090;-1.786;2023-07-31T12:23:13;99816.41;;;28.88;42.21
53246;BME280;39569;51.090;-1.786;2023-07-31T12:25:40;99826.41;;;28.09;43.06
53246;BME280;39569;51.090;-1.786;2023-07-31T12:28:09;99835.06;;;28.03;43.51
53246;BME280;39569;51.090;-1.786;2023-07-31T12:30:38;99840.59;;;28.69;42.75
53246;BME280;39569;51.090;-1.786;2023-07-31T12:33:07;99837.41;;;27.19;44.92
53246;BME280;39569;51.090;-1.786;2023-07-31T12:35:38;99840.00;;;28.37;43.41
53246;BME280;39569;51.090;-1.786;2023-07-31T12:38:06;99839.84;;;28.33;42.51
53246;BME280;39569;51.090;-1.786;2023-07-31T12:40:37;99827.47;;;29.05;41.97
53246;BME280;39569;51.090;-1.786;2023-07-31T12:43:04;99830.72;;;29.07;42.34
53246;BME280;39569;51.090;-1.786;2023-07-31T12:45:33;99828.84;;;28.11;43.27
53246;BME280;39569;51.090;-1.786;2023-07-31T12:48:00;99828.41;;;28.92;42.21